Latest Weather Observations for Lombadina

IDW60801

Issued at 7:33 pm WST Friday 24 March 2017 (issued every 30 minutes, with the page automatically refreshed every 10 minutes)

About weather observations | Map of weather stations | Latest weather observations for WA | Other Formats
Station Details ID: 503016 Name: LOMBADINA AIRSTRIP Lat: -16.52 Lon: 122.92 Height: 42.0 m
Data from the previous 72 hours. | See also: Recent months for locations in Western Australia
Date/Time
WST
Temp
°C
App
Temp
°C
Dew
Point
°C
Rel
Hum
%
Delta-T
°C
Wind Press
QNH
hPa
Press
MSL
hPa
Rain since
9am
mm
Dir  Spd
km/h
Gust
km/h
Spd
kts
Gust
kts
24/07:30pm 28.1 32.9 25.1 84 2.1 W 9 19 5 10 1007.9 1007.5 0.0
24/07:00pm 28.2 32.9 25.0 83 2.2 W 9 17 5 9 1007.8 1007.4 0.0
24/06:30pm 28.3 33.2 24.7 81 2.5 W 7 15 4 8 1007.6 1007.2 0.0
24/06:00pm 28.5 33.1 24.7 80 2.7 WNW 9 17 5 9 1007.1 1006.7 0.0
24/05:30pm 29.4 33.8 23.8 72 3.9 WNW 7 13 4 7 1006.6 1006.2 0.0
24/05:00pm 29.9 33.3 23.3 67 4.6 W 11 19 6 10 1006.4 1006.0 0.0
24/04:30pm 30.5 34.1 23.7 67 4.7 WNW 11 17 6 9 1006.2 1005.8 0.0
24/04:00pm 30.4 33.8 23.3 66 4.9 WNW 11 19 6 10 1006.2 1005.8 0.0
24/03:30pm 30.5 33.7 23.7 67 4.7 NW 13 20 7 11 1006.2 1005.8 0.0
24/03:00pm 30.6 34.0 24.0 68 4.6 NW 13 22 7 12 1006.4 1006.0 0.0
24/02:30pm 30.9 34.4 24.8 70 4.3 NW 15 24 8 13 1006.9 1006.5 0.0
24/02:00pm 30.7 32.4 23.1 64 5.2 WNW 19 30 10 16 1007.2 1006.8 0.0
24/01:30pm 30.9 33.6 24.1 67 4.7 WNW 17 28 9 15 1007.7 1007.3 0.0
24/01:00pm 30.8 34.2 24.7 70 4.3 WNW 15 28 8 15 1008.2 1007.8 0.0
24/12:30pm 30.7 34.2 25.5 74 3.7 WNW 17 22 9 12 1008.6 1008.2 0.0
24/12:00pm 30.9 35.1 25.9 74 3.6 NW 15 22 8 12 1009.0 1008.7 0.0
24/11:30am 31.1 36.0 25.2 71 4.2 NW 9 17 5 9 1009.2 1008.9 0.0
24/11:00am 30.5 35.6 24.6 70 4.1 NW 6 11 3 6 1009.4 1009.1 0.0
24/10:30am 29.9 34.9 25.4 77 3.2 WNW 9 15 5 8 1009.8 1009.5 0.0
24/10:00am 29.7 35.3 25.4 78 3.0 WNW 6 9 3 5 1010.3 1010.0 0.0
24/09:30am 29.3 34.1 25.1 78 3.0 NW 9 15 5 8 1010.5 1010.2 0.0
24/09:00am 29.4 33.3 24.3 74 3.6 WNW 11 19 6 10 1010.5 1010.2 1.0
24/08:30am 29.2 33.8 24.7 77 3.1 WNW 9 15 5 8 1010.3 1010.0 1.0
24/08:00am 28.8 33.7 25.2 81 2.5 W 9 17 5 9 1010.2 1009.9 1.0
24/07:30am 28.6 33.2 25.4 83 2.3 W 11 19 6 10 1009.9 1009.6 1.0
24/07:00am 28.2 32.3 24.6 81 2.5 WNW 11 22 6 12 1009.8 1009.5 1.0
24/06:30am 27.9 31.7 25.3 86 1.8 WNW 15 30 8 16 1009.6 1009.3 1.0
24/06:00am 28.2 32.8 25.4 85 2.0 WNW 11 19 6 10 1009.1 1008.8 1.0
24/05:30am 28.0 33.4 25.4 86 1.8 WNW 7 13 4 7 1008.7 1008.3 1.0
24/05:00am 28.0 32.5 25.2 85 2.0 NW 11 17 6 9 1008.5 1008.1 1.0
24/04:30am 28.0 32.9 25.2 85 2.0 NW 9 19 5 10 1008.5 1008.1 1.0
24/04:00am 27.9 32.7 25.1 85 2.0 NW 9 15 5 8 1008.4 1008.0 1.0
24/03:30am 27.8 32.7 25.2 86 1.8 NW 9 13 5 7 1008.3 1007.9 1.0
24/03:00am 27.8 32.3 25.2 86 1.8 NW 11 19 6 10 1008.2 1007.8 1.0
24/02:30am 27.7 32.5 25.1 86 1.8 NW 9 17 5 9 1008.0 1007.6 1.0
24/02:00am 27.8 33.1 25.2 86 1.8 NW 7 13 4 7 1008.2 1007.8 1.0
24/01:30am 27.4 33.4 24.8 86 1.8 N 2 4 1 2 1008.4 1008.0 1.0
24/01:00am 27.7 32.7 24.5 83 2.2 N 6 15 3 8 1008.3 1007.9 1.0
24/12:30am 28.1 32.2 24.5 81 2.5 NW 11 20 6 11 1008.5 1008.1 1.0
24/12:00am 27.9 32.2 24.9 84 2.1 NNW 11 17 6 9 1009.0 1008.7 1.0
 
Date/Time
WST
Temp
°C
App
Temp
°C
Dew
Point
°C
Rel
Hum
%
Delta-T
°C
Wind Press
QNH
hPa
Press
MSL
hPa
Rain since
9am
mm
Dir  Spd
km/h
Gust
km/h
Spd
kts
Gust
kts
23/11:30pm 28.0 32.0 25.0 84 2.1 NNW 13 20 7 11 1009.4 1009.1 1.0
23/11:00pm 28.3 31.8 24.9 82 2.4 NNW 15 26 8 14 1009.8 1009.5 1.0
23/10:30pm 28.3 31.8 24.9 82 2.4 NNW 15 26 8 14 1010.1 1009.8 1.0
23/10:00pm 28.3 31.7 24.7 81 2.5 NW 15 24 8 13 1009.9 1009.6 1.0
23/09:30pm 28.2 31.8 24.4 80 2.6 NW 13 20 7 11 1009.9 1009.6 1.0
23/09:00pm 28.1 32.3 24.1 79 2.8 NW 9 15 5 8 1009.9 1009.6 1.0
23/08:30pm 28.2 32.1 22.9 73 3.6 NW 7 11 4 6 1009.8 1009.5 1.0
23/08:00pm 28.2 32.3 24.0 78 2.9 NW 9 15 5 8 1009.5 1009.2 1.0
23/07:30pm 28.1 31.9 24.7 82 2.4 NW 13 20 7 11 1009.1 1008.8 1.0
23/07:00pm 28.0 31.7 24.6 82 2.4 NW 13 20 7 11 1008.8 1008.4 1.0
23/06:30pm 28.0 31.4 24.6 82 2.4 NW 15 26 8 14 1008.3 1007.9 1.0
23/06:00pm 28.0 31.7 24.6 82 2.4 NW 13 22 7 12 1008.1 1007.7 1.0
23/05:30pm 28.0 30.6 24.6 82 2.4 NW 19 30 10 16 1007.8 1007.4 1.0
23/05:00pm 27.9 30.6 24.7 83 2.2 NW 19 30 10 16 1007.6 1007.2 1.0
23/04:30pm 28.1 31.0 24.5 81 2.5 NW 17 24 9 13 1007.2 1006.8 1.0
23/04:00pm 28.3 31.2 24.5 80 2.7 NNW 17 26 9 14 1007.1 1006.7 1.0
23/03:30pm 28.8 31.9 24.8 79 2.8 NNW 17 26 9 14 1006.9 1006.5 1.0
23/03:00pm 28.8 33.0 25.4 82 2.4 NW 13 22 7 12 1007.0 1006.6 1.0
23/02:30pm 28.4 31.4 25.2 83 2.2 NW 19 26 10 14 1007.5 1007.1 1.0
23/02:00pm 28.6 32.0 25.8 85 2.0 NW 19 30 10 16 1007.9 1007.5 0.6
23/01:49pm 27.1 30.4 25.1 89 1.4 NW 17 30 9 16 1008.0 1007.6 0.6
23/01:30pm 27.2 28.9 24.7 86 1.7 NW 24 37 13 20 1008.4 1008.0 0.4
23/01:28pm 27.3 29.0 24.6 85 1.9 NW 24 37 13 20 1008.4 1008.0 0.4
23/01:00pm 28.1 28.1 23.7 77 3.0 NNW 30 48 16 26 1008.8 1008.4 0.4
23/12:57pm 29.6 30.6 24.7 75 3.4 NNW 28 48 15 26 1008.7 1008.3 0.4
23/12:35pm 29.4 31.6 24.9 77 3.2 NNW 22 37 12 20 1008.9 1008.6 0.4
23/12:30pm 29.6 31.7 25.4 78 3.0 NNW 24 35 13 19 1009.1 1008.8 0.0
23/12:10pm 28.9 31.9 25.5 82 2.4 NNW 20 30 11 16 1009.4 1009.1 0.0
23/12:00pm 29.1 32.1 25.3 80 2.7 NNW 19 30 10 16 1009.3 1009.0 0.0
23/11:30am 28.6 31.2 24.6 79 2.8 N 19 32 10 17 1009.8 1009.5 0.0
23/11:00am 29.3 31.0 24.0 73 3.7 NNW 22 33 12 18 1009.9 1009.6 0.0
23/10:30am 29.3 31.2 24.4 75 3.4 N 22 33 12 18 1009.9 1009.6 0.0
23/10:00am 29.4 31.5 24.7 76 3.3 NNW 22 33 12 18 1010.2 1009.9 0.0
23/09:30am 28.9 31.1 24.0 75 3.4 NNW 19 33 10 18 1010.6 1010.3 0.0
23/09:00am 28.6 31.4 23.7 75 3.4 NW 15 22 8 12 1010.2 1009.9 0.2
23/08:30am 27.8 30.2 23.6 78 2.9 NNW 17 28 9 15 1010.5 1010.2 0.2
23/08:00am 27.4 30.5 24.1 82 2.3 NNW 15 30 8 16 1010.4 1010.1 0.2
23/07:30am 28.4 33.2 24.2 78 2.9 N 6 11 3 6 1009.7 1009.4 0.2
23/07:00am 27.9 32.5 24.1 80 2.6 N 7 11 4 6 1009.4 1009.1 0.2
23/06:30am 27.6 32.1 24.0 81 2.5 NNW 7 11 4 6 1009.3 1009.0 0.2
23/06:00am 27.5 31.5 23.7 80 2.6 N 9 15 5 8 1008.8 1008.4 0.2
23/05:30am 27.4 32.0 24.1 82 2.3 NNW 7 11 4 6 1008.7 1008.3 0.2
23/05:00am 27.3 31.8 24.0 82 2.3 NNW 7 13 4 7 1008.3 1007.9 0.2
23/04:30am 27.4 31.7 24.3 83 2.1 NW 9 15 5 8 1008.1 1007.7 0.2
23/04:00am 27.4 31.0 24.3 83 2.2 NW 13 24 7 13 1007.9 1007.5 0.2
23/03:30am 27.3 31.0 24.6 85 1.9 NW 13 22 7 12 1007.8 1007.4 0.2
23/03:00am 26.9 30.8 24.9 89 1.4 NW 13 20 7 11 1007.5 1007.1 0.2
23/02:57am 26.9 30.8 24.9 89 1.4 NW 13 20 7 11 1007.5 1007.1 0.2
23/02:30am 27.0 31.1 25.2 90 1.3 WNW 13 22 7 12 1007.5 1007.1 0.2
23/02:17am 26.7 30.5 25.3 92 1.0 NW 15 26 8 14 1007.8 1007.4 0.2
23/02:00am 27.4 30.5 24.8 86 1.8 NW 17 30 9 16 1008.0 1007.6 0.2
23/01:30am 27.5 30.1 24.6 84 2.0 NW 19 32 10 17 1008.1 1007.7 0.2
23/01:00am 27.2 29.9 24.7 86 1.7 NNW 19 35 10 19 1008.4 1008.0 0.2
23/12:30am 26.4 28.6 24.8 91 1.1 NW 22 39 12 21 1008.8 1008.4 0.2
23/12:00am 28.1 30.6 24.7 82 2.4 NW 20 35 11 19 1009.1 1008.8 0.0
 
Date/Time
WST
Temp
°C
App
Temp
°C
Dew
Point
°C
Rel
Hum
%
Delta-T
°C
Wind Press
QNH
hPa
Press
MSL
hPa
Rain since
9am
mm
Dir  Spd
km/h
Gust
km/h
Spd
kts
Gust
kts
22/11:30pm 27.9 30.7 24.9 84 2.1 NNW 19 28 10 15 1009.0 1008.7 0.0
22/11:00pm 27.6 30.3 24.8 85 2.0 NNW 19 30 10 16 1009.2 1008.9 0.0
22/10:30pm 27.7 30.5 24.9 85 2.0 NNW 19 28 10 15 1009.3 1009.0 0.0
22/10:00pm 27.1 30.5 25.3 90 1.3 NNW 17 35 9 19 1009.6 1009.3 0.0
22/09:30pm 28.1 30.6 24.5 81 2.5 NNW 19 33 10 18 1009.4 1009.1 0.0
22/09:00pm 28.1 30.9 24.3 80 2.6 NNW 17 32 9 17 1009.5 1009.2 0.0
22/08:30pm 28.1 30.5 24.3 80 2.6 NNW 19 28 10 15 1009.3 1009.0 0.0
22/08:00pm 28.1 31.1 24.7 82 2.4 N 17 30 9 16 1009.1 1008.8 0.0
22/07:30pm 27.0 32.4 25.4 91 1.1 N 7 15 4 8 1008.9 1008.6 0.0
22/07:00pm 26.8 31.7 25.2 91 1.1 NNE 9 17 5 9 1008.3 1007.9 0.0
22/06:30pm 28.2 32.8 24.8 82 2.4 NNE 9 15 5 8 1007.9 1007.5 0.0
22/06:00pm 28.6 32.3 24.6 79 2.8 N 13 20 7 11 1007.5 1007.1 0.0
22/05:30pm 28.8 33.2 25.0 80 2.7 N 11 19 6 10 1007.0 1006.6 0.0
22/05:00pm 28.9 33.1 24.7 78 2.9 N 11 24 6 13 1006.6 1006.2 0.0
22/04:30pm 29.1 33.4 24.9 78 2.9 N 11 22 6 12 1006.4 1006.0 0.0
22/04:00pm 29.3 33.5 24.8 77 3.2 N 11 19 6 10 1006.3 1005.9 0.0
22/03:30pm 29.5 31.9 24.6 75 3.4 N 20 35 11 19 1006.4 1006.0 0.0
22/03:00pm 30.5 33.4 25.1 73 3.8 NNW 19 28 10 15 1006.3 1005.9 0.0
22/02:30pm 30.1 33.0 24.5 72 3.9 N 17 28 9 15 1006.6 1006.2 0.0
22/02:00pm 30.3 33.3 24.7 72 3.9 N 17 30 9 16 1006.8 1006.4 0.0
22/01:30pm 30.7 33.0 24.1 68 4.6 N 19 35 10 19 1007.1 1006.7 0.0
22/01:00pm 30.9 33.2 24.1 67 4.7 N 19 28 10 15 1007.1 1006.7 0.0
22/12:30pm 30.5 33.3 24.9 72 3.9 N 19 30 10 16 1007.4 1007.0 0.0
22/12:00pm 30.5 33.9 25.3 74 3.7 N 17 30 9 16 1007.9 1007.5 0.0
22/11:30am 29.8 32.7 25.1 76 3.3 N 19 30 10 16 1008.4 1008.0 0.0
22/11:00am 30.2 33.1 24.4 71 4.1 N 17 33 9 18 1008.6 1008.2 0.0
22/10:30am 30.6 33.5 24.5 70 4.3 NNE 17 30 9 16 1008.7 1008.3 0.0
22/10:00am 29.8 32.1 23.5 69 4.4 NNE 17 26 9 14 1009.1 1008.8 0.0
22/09:30am 30.0 33.6 24.4 72 3.9 N 13 22 7 12 1009.2 1008.9 0.0
22/09:00am 28.3 31.0 24.7 81 2.5 N 19 28 10 15 1009.4 1009.1 4.2
22/08:30am 29.6 33.5 26.0 81 2.6 NNE 17 33 9 18 1009.6 1009.3 4.2
22/08:00am 28.3 32.7 25.1 83 2.2 NNE 11 22 6 12 1009.7 1009.4 4.2
22/07:30am 28.1 32.8 24.9 83 2.2 NNE 9 17 5 9 1009.4 1009.1 4.2
22/07:00am 27.4 31.4 25.0 87 1.7 NE 13 30 7 16 1008.7 1008.3 4.2
22/06:30am 27.6 32.2 26.0 91 1.1 NE 13 20 7 11 1009.0 1008.7 4.2
22/06:00am 26.6 30.8 24.8 90 1.3 NE 11 28 6 15 1008.6 1008.2 4.2
22/05:30am 27.6 33.3 25.6 89 1.4 NE 6 9 3 5 1008.2 1007.8 3.8
22/05:00am 27.6 33.3 25.6 89 1.4 NE 6 11 3 6 1007.6 1007.2 3.8
22/04:30am 27.6 33.0 25.2 87 1.7 NNE 6 9 3 5 1007.3 1006.9 3.8
22/04:00am 28.0 33.7 25.6 87 1.7 N 6 9 3 5 1007.3 1006.9 3.8
22/03:30am 28.0 33.6 25.8 88 1.6 N 7 13 4 7 1007.4 1007.0 3.8
22/03:00am 27.9 33.7 25.7 88 1.6 N 6 9 3 5 1007.4 1007.0 3.8
22/02:30am 27.8 33.5 25.6 88 1.6 N 6 11 3 6 1007.4 1007.0 3.8
22/02:00am 27.5 33.8 25.9 91 1.1 NNE 4 7 2 4 1007.4 1007.0 3.8
22/01:30am 27.2 34.2 25.8 92 1.0 CALM 0 4 0 2 1007.7 1007.3 3.8
22/01:00am 27.3 33.4 25.7 91 1.1 NE 4 6 2 3 1008.2 1007.8 3.8
22/12:30am 27.5 34.2 25.9 91 1.1 NNE 2 4 1 2 1008.5 1008.1 3.8
22/12:00am 27.2 33.3 25.6 91 1.1 NNE 4 6 2 3 1008.7 1008.3 3.8
 
Date/Time
WST
Temp
°C
App
Temp
°C
Dew
Point
°C
Rel
Hum
%
Delta-T
°C
Wind Press
QNH
hPa
Press
MSL
hPa
Rain since
9am
mm
Dir  Spd
km/h
Gust
km/h
Spd
kts
Gust
kts
21/11:30pm 27.3 33.4 25.7 91 1.1 NE 4 7 2 4 1009.2 1008.9 3.8
21/11:00pm 27.4 33.5 25.6 90 1.3 NE 4 7 2 4 1009.3 1009.0 3.8
21/10:30pm 27.3 33.3 25.5 90 1.3 NNE 4 7 2 4 1008.9 1008.6 3.8
21/10:00pm 27.4 33.3 25.4 89 1.4 NNE 4 6 2 3 1009.1 1008.8 3.8
21/09:30pm 27.6 33.8 25.2 87 1.7 N 2 6 1 3 1009.3 1009.0 3.8
21/09:00pm 27.7 34.0 25.3 87 1.7 NE 2 4 1 2 1009.2 1008.9 3.8
21/08:30pm 28.0 33.8 25.2 85 2.0 N 4 7 2 4 1009.0 1008.7 3.8
21/08:00pm 28.1 33.6 25.3 85 2.0 NNW 6 7 3 4 1008.8 1008.4 3.8

Other Formats:

Comma delimited format used in spreadsheet applications
http://www.bom.gov.au/fwo/IDW60801/IDW60801.99206.axf

JavaScript Object Notation format (JSON) in row-major order
http://www.bom.gov.au/fwo/IDW60801/IDW60801.99206.json